sensor_id;sensor_type;location;lat;lon;timestamp;temperature;humidity
19829;DHT22;10075;50.924;4.396;2023-02-01T00:02:17;7.10;99.90
19829;DHT22;10075;50.924;4.396;2023-02-01T00:04:44;7.20;99.90
19829;DHT22;10075;50.924;4.396;2023-02-01T00:07:11;7.20;99.90
19829;DHT22;10075;50.924;4.396;2023-02-01T00:09:38;7.20;99.90
19829;DHT22;10075;50.924;4.396;2023-02-01T00:12:07;7.40;99.90
19829;DHT22;10075;50.924;4.396;2023-02-01T00:14:34;7.50;99.90
19829;DHT22;10075;50.924;4.396;2023-02-01T00:17:04;7.60;99.90
19829;DHT22;10075;50.924;4.396;2023-02-01T00:19:32;7.50;99.90
19829;DHT22;10075;50.924;4.396;2023-02-01T00:21:59;7.40;99.90
19829;DHT22;10075;50.924;4.396;2023-02-01T00:24:26;7.30;99.90
19829;DHT22;10075;50.924;4.396;2023-02-01T00:26:53;7.30;99.90
19829;DHT22;10075;50.924;4.396;2023-02-01T00:29:22;7.30;99.90
19829;DHT22;10075;50.924;4.396;2023-02-01T00:31:50;7.10;99.90
19829;DHT22;10075;50.924;4.396;2023-02-01T00:34:18;7.10;99.90
19829;DHT22;10075;50.924;4.396;2023-02-01T00:36:46;7.20;99.90
19829;DHT22;10075;50.924;4.396;2023-02-01T00:39:13;7.30;99.90
19829;DHT22;10075;50.924;4.396;2023-02-01T00:41:40;7.40;99.90
19829;DHT22;10075;50.924;4.396;2023-02-01T00:44:07;7.30;99.90
19829;DHT22;10075;50.924;4.396;2023-02-01T00:46:36;7.30;99.90
19829;DHT22;10075;50.924;4.396;2023-02-01T00:49:03;7.40;99.90
19829;DHT22;10075;50.924;4.396;2023-02-01T00:51:31;7.40;99.90
19829;DHT22;10075;50.924;4.396;2023-02-01T00:53:58;7.40;99.90
19829;DHT22;10075;50.924;4.396;2023-02-01T00:56:25;7.40;99.90
19829;DHT22;10075;50.924;4.396;2023-02-01T00:58:53;7.30;99.90
19829;DHT22;10075;50.924;4.396;2023-02-01T01:01:22;7.30;99.90
19829;DHT22;10075;50.924;4.396;2023-02-01T01:03:53;7.30;99.90
19829;DHT22;10075;50.924;4.396;2023-02-01T01:06:22;7.50;99.90
19829;DHT22;10075;50.924;4.396;2023-02-01T01:08:51;7.40;99.90
19829;DHT22;10075;50.924;4.396;2023-02-01T01:11:21;7.40;99.90
19829;DHT22;10075;50.924;4.396;2023-02-01T01:13:50;7.60;99.90
19829;DHT22;10075;50.924;4.396;2023-02-01T01:16:18;7.60;99.90
19829;DHT22;10075;50.924;4.396;2023-02-01T01:18:45;7.40;99.90
19829;DHT22;10075;50.924;4.396;2023-02-01T01:21:15;7.40;99.90
19829;DHT22;10075;50.924;4.396;2023-02-01T01:23:43;7.40;99.90
19829;DHT22;10075;50.924;4.396;2023-02-01T01:26:14;7.40;99.90
19829;DHT22;10075;50.924;4.396;2023-02-01T01:28:41;7.40;99.90
19829;DHT22;10075;50.924;4.396;2023-02-01T01:31:09;7.30;99.90
19829;DHT22;10075;50.924;4.396;2023-02-01T01:33:38;7.40;99.90
19829;DHT22;10075;50.924;4.396;2023-02-01T01:36:05;7.40;99.90
19829;DHT22;10075;50.924;4.396;2023-02-01T01:38:35;7.40;99.90
19829;DHT22;10075;50.924;4.396;2023-02-01T01:41:02;7.40;99.90
19829;DHT22;10075;50.924;4.396;2023-02-01T01:43:46;7.30;99.90
19829;DHT22;10075;50.924;4.396;2023-02-01T01:46:16;7.30;99.90
19829;DHT22;10075;50.924;4.396;2023-02-01T01:48:43;7.30;99.90
19829;DHT22;10075;50.924;4.396;2023-02-01T01:51:12;7.30;99.90
19829;DHT22;10075;50.924;4.396;2023-02-01T01:53:47;7.40;99.90
19829;DHT22;10075;50.924;4.396;2023-02-01T01:56:15;7.50;99.90
19829;DHT22;10075;50.924;4.396;2023-02-01T01:58:42;7.50;99.90
19829;DHT22;10075;50.924;4.396;2023-02-01T02:01:10;7.50;99.90
19829;DHT22;10075;50.924;4.396;2023-02-01T02:03:40;7.40;99.90
19829;DHT22;10075;50.924;4.396;2023-02-01T02:06:12;7.20;99.90
19829;DHT22;10075;50.924;4.396;2023-02-01T02:08:43;6.90;99.90
19829;DHT22;10075;50.924;4.396;2023-02-01T02:11:12;6.90;99.90
19829;DHT22;10075;50.924;4.396;2023-02-01T02:13:42;6.90;99.90
19829;DHT22;10075;50.924;4.396;2023-02-01T02:16:29;6.80;99.90
19829;DHT22;10075;50.924;4.396;2023-02-01T02:19:15;6.70;99.90
19829;DHT22;10075;50.924;4.396;2023-02-01T02:22:02;6.70;99.90
19829;DHT22;10075;50.924;4.396;2023-02-01T02:24:58;6.90;99.90
19829;DHT22;10075;50.924;4.396;2023-02-01T02:27:38;6.80;99.90
19829;DHT22;10075;50.924;4.396;2023-02-01T02:30:37;6.70;99.90
19829;DHT22;10075;50.924;4.396;2023-02-01T02:33:46;6.60;99.90
19829;DHT22;10075;50.924;4.396;2023-02-01T02:36:19;6.50;99.90
19829;DHT22;10075;50.924;4.396;2023-02-01T02:38:52;6.60;99.90
19829;DHT22;10075;50.924;4.396;2023-02-01T02:41:27;6.60;99.90
19829;DHT22;10075;50.924;4.396;2023-02-01T02:44:23;6.50;99.90
19829;DHT22;10075;50.924;4.396;2023-02-01T02:47:16;6.50;99.90
19829;DHT22;10075;50.924;4.396;2023-02-01T02:50:09;6.40;99.90
19829;DHT22;10075;50.924;4.396;2023-02-01T02:53:03;6.40;99.90
19829;DHT22;10075;50.924;4.396;2023-02-01T02:55:49;6.50;99.90
19829;DHT22;10075;50.924;4.396;2023-02-01T02:58:18;6.50;99.90
19829;DHT22;10075;50.924;4.396;2023-02-01T03:01:04;6.50;99.90
19829;DHT22;10075;50.924;4.396;2023-02-01T03:03:49;6.40;99.90
19829;DHT22;10075;50.924;4.396;2023-02-01T03:06:37;6.30;99.90
19829;DHT22;10075;50.924;4.396;2023-02-01T03:09:10;6.30;99.90
19829;DHT22;10075;50.924;4.396;2023-02-01T03:11:39;6.30;99.90
19829;DHT22;10075;50.924;4.396;2023-02-01T03:14:29;6.30;99.90
19829;DHT22;10075;50.924;4.396;2023-02-01T03:16:59;6.30;99.90
19829;DHT22;10075;50.924;4.396;2023-02-01T03:19:33;6.30;99.90
19829;DHT22;10075;50.924;4.396;2023-02-01T03:22:04;6.20;99.90
19829;DHT22;10075;50.924;4.396;2023-02-01T03:24:34;6.20;99.90
19829;DHT22;10075;50.924;4.396;2023-02-01T03:27:08;6.10;99.90
19829;DHT22;10075;50.924;4.396;2023-02-01T03:29:41;6.10;99.90
19829;DHT22;10075;50.924;4.396;2023-02-01T03:32:11;6.30;99.90
19829;DHT22;10075;50.924;4.396;2023-02-01T03:34:38;6.30;99.90
19829;DHT22;10075;50.924;4.396;2023-02-01T03:37:13;6.20;99.90
19829;DHT22;10075;50.924;4.396;2023-02-01T03:39:46;6.20;99.90
19829;DHT22;10075;50.924;4.396;2023-02-01T03:42:18;6.10;99.90
19829;DHT22;10075;50.924;4.396;2023-02-01T03:44:50;6.10;99.90
19829;DHT22;10075;50.924;4.396;2023-02-01T03:47:21;6.10;99.90
19829;DHT22;10075;50.924;4.396;2023-02-01T03:49:50;6.10;99.90
19829;DHT22;10075;50.924;4.396;2023-02-01T03:52:24;6.10;99.90
19829;DHT22;10075;50.924;4.396;2023-02-01T03:54:54;6.10;99.90
19829;DHT22;10075;50.924;4.396;2023-02-01T03:57:27;6.10;99.90
19829;DHT22;10075;50.924;4.396;2023-02-01T04:00:04;6.10;99.90
19829;DHT22;10075;50.924;4.396;2023-02-01T04:02:33;6.10;99.90
19829;DHT22;10075;50.924;4.396;2023-02-01T04:05:00;6.10;99.90
19829;DHT22;10075;50.924;4.396;2023-02-01T04:07:28;6.10;99.90
19829;DHT22;10075;50.924;4.396;2023-02-01T04:09:55;6.00;99.90
19829;DHT22;10075;50.924;4.396;2023-02-01T04:12:22;5.90;99.90
19829;DHT22;10075;50.924;4.396;2023-02-01T04:14:49;5.90;99.90
19829;DHT22;10075;50.924;4.396;2023-02-01T04:17:16;5.80;99.90
19829;DHT22;10075;50.924;4.396;2023-02-01T04:19:44;5.80;99.90
19829;DHT22;10075;50.924;4.396;2023-02-01T04:22:11;5.80;99.90
19829;DHT22;10075;50.924;4.396;2023-02-01T04:24:40;5.80;99.90
19829;DHT22;10075;50.924;4.396;2023-02-01T04:27:07;5.80;99.90
19829;DHT22;10075;50.924;4.396;2023-02-01T04:29:34;5.80;99.90
19829;DHT22;10075;50.924;4.396;2023-02-01T04:32:01;5.70;99.90
19829;DHT22;10075;50.924;4.396;2023-02-01T04:34:28;5.70;99.90
19829;DHT22;10075;50.924;4.396;2023-02-01T04:36:55;5.70;99.90
19829;DHT22;10075;50.924;4.396;2023-02-01T04:39:22;5.70;99.90
19829;DHT22;10075;50.924;4.396;2023-02-01T04:41:50;5.70;99.90
19829;DHT22;10075;50.924;4.396;2023-02-01T04:44:18;5.70;99.90
19829;DHT22;10075;50.924;4.396;2023-02-01T04:46:46;5.70;99.90
19829;DHT22;10075;50.924;4.396;2023-02-01T04:49:14;5.70;99.90
19829;DHT22;10075;50.924;4.396;2023-02-01T04:51:41;5.70;99.90
19829;DHT22;10075;50.924;4.396;2023-02-01T04:54:09;5.70;99.90
19829;DHT22;10075;50.924;4.396;2023-02-01T04:56:37;5.70;99.90
19829;DHT22;10075;50.924;4.396;2023-02-01T04:59:06;5.60;99.90
19829;DHT22;10075;50.924;4.396;2023-02-01T05:01:36;5.50;99.90
19829;DHT22;10075;50.924;4.396;2023-02-01T05:04:03;5.50;99.90
19829;DHT22;10075;50.924;4.396;2023-02-01T05:06:31;5.50;99.90
19829;DHT22;10075;50.924;4.396;2023-02-01T05:08:58;5.50;99.90
19829;DHT22;10075;50.924;4.396;2023-02-01T05:11:25;5.50;99.90
19829;DHT22;10075;50.924;4.396;2023-02-01T05:14:10;5.40;99.90
19829;DHT22;10075;50.924;4.396;2023-02-01T05:16:37;5.40;99.90
19829;DHT22;10075;50.924;4.396;2023-02-01T05:19:04;5.40;99.90
19829;DHT22;10075;50.924;4.396;2023-02-01T05:21:31;5.40;99.90
19829;DHT22;10075;50.924;4.396;2023-02-01T05:23:58;5.40;99.90
19829;DHT22;10075;50.924;4.396;2023-02-01T05:26:40;5.50;99.90
19829;DHT22;10075;50.924;4.396;2023-02-01T05:29:10;5.50;99.90
19829;DHT22;10075;50.924;4.396;2023-02-01T05:31:37;5.60;99.90
19829;DHT22;10075;50.924;4.396;2023-02-01T05:34:05;5.60;99.90
19829;DHT22;10075;50.924;4.396;2023-02-01T05:36:33;5.70;99.90
19829;DHT22;10075;50.924;4.396;2023-02-01T05:39:00;5.60;99.90
19829;DHT22;10075;50.924;4.396;2023-02-01T05:41:27;5.60;99.90
19829;DHT22;10075;50.924;4.396;2023-02-01T05:43:54;5.70;99.90
19829;DHT22;10075;50.924;4.396;2023-02-01T05:46:22;5.80;99.90
19829;DHT22;10075;50.924;4.396;2023-02-01T05:48:49;5.70;99.90
19829;DHT22;10075;50.924;4.396;2023-02-01T05:51:16;5.50;99.90
19829;DHT22;10075;50.924;4.396;2023-02-01T05:53:43;5.40;99.90
19829;DHT22;10075;50.924;4.396;2023-02-01T05:56:10;5.40;99.90
19829;DHT22;10075;50.924;4.396;2023-02-01T05:58:37;5.40;99.90
19829;DHT22;10075;50.924;4.396;2023-02-01T06:01:04;5.40;99.90
19829;DHT22;10075;50.924;4.396;2023-02-01T06:03:33;5.40;99.90
19829;DHT22;10075;50.924;4.396;2023-02-01T06:06:00;5.30;99.90
19829;DHT22;10075;50.924;4.396;2023-02-01T06:08:27;5.30;99.90
19829;DHT22;10075;50.924;4.396;2023-02-01T06:10:58;5.20;99.90
19829;DHT22;10075;50.924;4.396;2023-02-01T06:13:26;5.20;99.90
19829;DHT22;10075;50.924;4.396;2023-02-01T06:15:53;5.20;99.90
19829;DHT22;10075;50.924;4.396;2023-02-01T06:18:21;5.30;99.90
19829;DHT22;10075;50.924;4.396;2023-02-01T06:20:53;5.20;99.90
19829;DHT22;10075;50.924;4.396;2023-02-01T06:23:20;5.10;99.90
19829;DHT22;10075;50.924;4.396;2023-02-01T06:25:50;5.10;99.90
19829;DHT22;10075;50.924;4.396;2023-02-01T06:28:17;5.00;99.90
19829;DHT22;10075;50.924;4.396;2023-02-01T06:30:44;5.20;99.90
19829;DHT22;10075;50.924;4.396;2023-02-01T06:33:12;5.40;99.90
19829;DHT22;10075;50.924;4.396;2023-02-01T06:35:42;5.40;99.90
19829;DHT22;10075;50.924;4.396;2023-02-01T06:38:11;5.50;99.90
19829;DHT22;10075;50.924;4.396;2023-02-01T06:40:38;5.40;99.90
19829;DHT22;10075;50.924;4.396;2023-02-01T06:43:06;5.50;99.90
19829;DHT22;10075;50.924;4.396;2023-02-01T06:45:33;5.60;99.90
19829;DHT22;10075;50.924;4.396;2023-02-01T06:48:00;5.60;99.90
19829;DHT22;10075;50.924;4.396;2023-02-01T06:50:28;5.60;99.90
19829;DHT22;10075;50.924;4.396;2023-02-01T06:52:55;5.60;99.90
19829;DHT22;10075;50.924;4.396;2023-02-01T06:55:23;5.80;99.90
19829;DHT22;10075;50.924;4.396;2023-02-01T06:57:53;5.70;99.90
19829;DHT22;10075;50.924;4.396;2023-02-01T07:00:21;5.60;99.90
19829;DHT22;10075;50.924;4.396;2023-02-01T07:02:49;5.60;99.90
19829;DHT22;10075;50.924;4.396;2023-02-01T07:05:16;5.70;99.90
19829;DHT22;10075;50.924;4.396;2023-02-01T07:07:43;5.70;99.90
19829;DHT22;10075;50.924;4.396;2023-02-01T07:10:10;5.90;99.90
19829;DHT22;10075;50.924;4.396;2023-02-01T07:12:39;5.80;99.90
19829;DHT22;10075;50.924;4.396;2023-02-01T07:15:07;5.80;99.90
19829;DHT22;10075;50.924;4.396;2023-02-01T07:17:34;5.70;99.90
19829;DHT22;10075;50.924;4.396;2023-02-01T07:20:01;5.70;99.90
19829;DHT22;10075;50.924;4.396;2023-02-01T07:22:28;5.60;99.90
19829;DHT22;10075;50.924;4.396;2023-02-01T07:24:55;5.60;99.90
19829;DHT22;10075;50.924;4.396;2023-02-01T07:27:23;5.70;99.90
19829;DHT22;10075;50.924;4.396;2023-02-01T07:29:52;5.80;99.90
19829;DHT22;10075;50.924;4.396;2023-02-01T07:32:21;5.90;99.90
19829;DHT22;10075;50.924;4.396;2023-02-01T07:34:48;5.80;99.90
19829;DHT22;10075;50.924;4.396;2023-02-01T07:37:15;5.70;99.90
19829;DHT22;10075;50.924;4.396;2023-02-01T07:39:42;5.60;99.90
19829;DHT22;10075;50.924;4.396;2023-02-01T07:42:09;5.60;99.90
19829;DHT22;10075;50.924;4.396;2023-02-01T07:44:36;5.60;99.90
19829;DHT22;10075;50.924;4.396;2023-02-01T07:47:05;5.70;99.90
19829;DHT22;10075;50.924;4.396;2023-02-01T07:49:32;5.80;99.90
19829;DHT22;10075;50.924;4.396;2023-02-01T07:51:59;5.90;99.90
19829;DHT22;10075;50.924;4.396;2023-02-01T07:54:26;6.00;99.90
19829;DHT22;10075;50.924;4.396;2023-02-01T07:56:53;5.90;99.90
19829;DHT22;10075;50.924;4.396;2023-02-01T07:59:20;6.00;99.90
19829;DHT22;10075;50.924;4.396;2023-02-01T08:01:47;6.00;99.90
19829;DHT22;10075;50.924;4.396;2023-02-01T08:04:14;6.10;99.90
19829;DHT22;10075;50.924;4.396;2023-02-01T08:06:41;6.20;99.90
19829;DHT22;10075;50.924;4.396;2023-02-01T08:09:08;6.30;99.90
19829;DHT22;10075;50.924;4.396;2023-02-01T08:11:36;6.30;99.90
19829;DHT22;10075;50.924;4.396;2023-02-01T08:14:04;6.50;99.90
19829;DHT22;10075;50.924;4.396;2023-02-01T08:16:31;6.50;99.90
19829;DHT22;10075;50.924;4.396;2023-02-01T08:19:00;6.40;99.90
19829;DHT22;10075;50.924;4.396;2023-02-01T08:21:29;6.30;99.90
19829;DHT22;10075;50.924;4.396;2023-02-01T08:24:03;6.30;99.90
19829;DHT22;10075;50.924;4.396;2023-02-01T08:26:31;6.50;99.90
19829;DHT22;10075;50.924;4.396;2023-02-01T08:28:59;6.30;99.90
19829;DHT22;10075;50.924;4.396;2023-02-01T08:31:29;6.30;99.90
19829;DHT22;10075;50.924;4.396;2023-02-01T08:33:58;6.40;99.90
19829;DHT22;10075;50.924;4.396;2023-02-01T08:36:29;6.40;99.90
19829;DHT22;10075;50.924;4.396;2023-02-01T08:38:57;6.40;99.90
19829;DHT22;10075;50.924;4.396;2023-02-01T08:41:25;6.30;99.90
19829;DHT22;10075;50.924;4.396;2023-02-01T08:43:52;6.30;99.90
19829;DHT22;10075;50.924;4.396;2023-02-01T08:46:20;6.30;99.90
19829;DHT22;10075;50.924;4.396;2023-02-01T08:48:48;6.20;99.90
19829;DHT22;10075;50.924;4.396;2023-02-01T08:51:17;6.30;99.90
19829;DHT22;10075;50.924;4.396;2023-02-01T08:53:46;6.40;99.90
19829;DHT22;10075;50.924;4.396;2023-02-01T08:56:16;6.60;99.90
19829;DHT22;10075;50.924;4.396;2023-02-01T08:58:44;6.60;99.90
19829;DHT22;10075;50.924;4.396;2023-02-01T09:01:12;6.50;99.90
19829;DHT22;10075;50.924;4.396;2023-02-01T09:03:40;6.50;99.90
19829;DHT22;10075;50.924;4.396;2023-02-01T09:06:09;6.60;99.90
19829;DHT22;10075;50.924;4.396;2023-02-01T09:08:37;6.70;99.90
19829;DHT22;10075;50.924;4.396;2023-02-01T09:11:09;6.80;99.90
19829;DHT22;10075;50.924;4.396;2023-02-01T09:13:37;6.70;99.90
19829;DHT22;10075;50.924;4.396;2023-02-01T09:16:04;6.70;99.90
19829;DHT22;10075;50.924;4.396;2023-02-01T09:18:31;6.80;99.90
19829;DHT22;10075;50.924;4.396;2023-02-01T09:20:58;6.80;99.90
19829;DHT22;10075;50.924;4.396;2023-02-01T09:23:25;6.80;99.90
19829;DHT22;10075;50.924;4.396;2023-02-01T09:25:52;7.00;99.90
19829;DHT22;10075;50.924;4.396;2023-02-01T09:28:21;7.10;99.90
19829;DHT22;10075;50.924;4.396;2023-02-01T09:30:48;7.20;99.90
19829;DHT22;10075;50.924;4.396;2023-02-01T09:33:15;7.30;99.90
19829;DHT22;10075;50.924;4.396;2023-02-01T09:35:43;7.20;99.90
19829;DHT22;10075;50.924;4.396;2023-02-01T09:38:10;7.20;99.90
19829;DHT22;10075;50.924;4.396;2023-02-01T09:40:42;7.30;99.90
19829;DHT22;10075;50.924;4.396;2023-02-01T09:43:23;7.20;99.90
19829;DHT22;10075;50.924;4.396;2023-02-01T09:45:58;7.40;99.90
19829;DHT22;10075;50.924;4.396;2023-02-01T09:48:30;7.70;99.90
19829;DHT22;10075;50.924;4.396;2023-02-01T09:51:00;7.50;99.90
19829;DHT22;10075;50.924;4.396;2023-02-01T09:53:32;7.50;99.90
19829;DHT22;10075;50.924;4.396;2023-02-01T09:56:04;7.70;99.90
19829;DHT22;10075;50.924;4.396;2023-02-01T09:58:36;7.70;99.90
19829;DHT22;10075;50.924;4.396;2023-02-01T10:01:10;7.70;99.90
19829;DHT22;10075;50.924;4.396;2023-02-01T10:03:40;7.70;99.90
19829;DHT22;10075;50.924;4.396;2023-02-01T10:06:33;7.60;99.90
19829;DHT22;10075;50.924;4.396;2023-02-01T10:09:14;7.60;99.90
19829;DHT22;10075;50.924;4.396;2023-02-01T10:12:12;7.70;99.90
19829;DHT22;10075;50.924;4.396;2023-02-01T10:14:52;7.80;99.90
19829;DHT22;10075;50.924;4.396;2023-02-01T10:17:31;7.90;99.90
19829;DHT22;10075;50.924;4.396;2023-02-01T10:20:13;7.90;99.90
19829;DHT22;10075;50.924;4.396;2023-02-01T10:22:45;7.80;99.90
19829;DHT22;10075;50.924;4.396;2023-02-01T10:25:17;7.90;99.90
19829;DHT22;10075;50.924;4.396;2023-02-01T10:27:48;8.00;99.90
19829;DHT22;10075;50.924;4.396;2023-02-01T10:30:22;8.10;99.90
19829;DHT22;10075;50.924;4.396;2023-02-01T10:33:07;8.40;99.90
19829;DHT22;10075;50.924;4.396;2023-02-01T10:35:40;8.40;99.90
19829;DHT22;10075;50.924;4.396;2023-02-01T10:38:15;8.20;99.90
19829;DHT22;10075;50.924;4.396;2023-02-01T10:40:45;8.30;99.90
19829;DHT22;10075;50.924;4.396;2023-02-01T10:43:13;8.30;99.90
19829;DHT22;10075;50.924;4.396;2023-02-01T10:45:42;8.50;99.90
19829;DHT22;10075;50.924;4.396;2023-02-01T10:48:09;8.40;99.90
19829;DHT22;10075;50.924;4.396;2023-02-01T10:50:41;8.50;99.90
19829;DHT22;10075;50.924;4.396;2023-02-01T10:53:14;8.60;99.90
19829;DHT22;10075;50.924;4.396;2023-02-01T10:55:48;8.70;99.90
19829;DHT22;10075;50.924;4.396;2023-02-01T10:58:17;9.00;99.90
19829;DHT22;10075;50.924;4.396;2023-02-01T11:00:48;9.10;99.90
19829;DHT22;10075;50.924;4.396;2023-02-01T11:03:38;9.10;99.90
19829;DHT22;10075;50.924;4.396;2023-02-01T11:06:17;9.10;99.90
19829;DHT22;10075;50.924;4.396;2023-02-01T11:08:49;9.00;99.90
19829;DHT22;10075;50.924;4.396;2023-02-01T11:11:17;9.00;99.90
19829;DHT22;10075;50.924;4.396;2023-02-01T11:13:45;9.00;99.90
19829;DHT22;10075;50.924;4.396;2023-02-01T11:16:19;9.40;99.90
19829;DHT22;10075;50.924;4.396;2023-02-01T11:18:53;9.40;99.90
19829;DHT22;10075;50.924;4.396;2023-02-01T11:21:21;9.30;99.90
19829;DHT22;10075;50.924;4.396;2023-02-01T11:23:48;9.30;99.90
19829;DHT22;10075;50.924;4.396;2023-02-01T11:26:21;9.50;99.90
19829;DHT22;10075;50.924;4.396;2023-02-01T11:28:53;9.40;99.90
19829;DHT22;10075;50.924;4.396;2023-02-01T11:31:22;9.20;99.90
19829;DHT22;10075;50.924;4.396;2023-02-01T11:33:53;9.10;99.90
19829;DHT22;10075;50.924;4.396;2023-02-01T11:36:24;9.00;99.90
19829;DHT22;10075;50.924;4.396;2023-02-01T11:39:06;9.10;99.90
19829;DHT22;10075;50.924;4.396;2023-02-01T11:41:41;9.20;99.90
19829;DHT22;10075;50.924;4.396;2023-02-01T11:44:21;9.20;99.90
19829;DHT22;10075;50.924;4.396;2023-02-01T11:46:50;9.00;99.90
19829;DHT22;10075;50.924;4.396;2023-02-01T11:49:23;9.10;99.90
19829;DHT22;10075;50.924;4.396;2023-02-01T11:52:10;9.20;99.90
19829;DHT22;10075;50.924;4.396;2023-02-01T11:55:01;9.20;99.90
19829;DHT22;10075;50.924;4.396;2023-02-01T11:57:43;9.60;99.90
19829;DHT22;10075;50.924;4.396;2023-02-01T12:00:31;9.70;99.90
19829;DHT22;10075;50.924;4.396;2023-02-01T12:03:40;9.60;99.90
19829;DHT22;10075;50.924;4.396;2023-02-01T12:06:15;9.60;99.90
19829;DHT22;10075;50.924;4.396;2023-02-01T12:09:03;9.60;99.90
19829;DHT22;10075;50.924;4.396;2023-02-01T12:11:43;9.90;99.90
19829;DHT22;10075;50.924;4.396;2023-02-01T12:14:33;10.00;99.90
19829;DHT22;10075;50.924;4.396;2023-02-01T12:20:20;10.00;99.90
19829;DHT22;10075;50.924;4.396;2023-02-01T12:22:56;10.10;99.90
19829;DHT22;10075;50.924;4.396;2023-02-01T12:25:37;10.30;99.90
19829;DHT22;10075;50.924;4.396;2023-02-01T12:28:37;10.60;99.90
19829;DHT22;10075;50.924;4.396;2023-02-01T12:31:19;10.60;99.90
19829;DHT22;10075;50.924;4.396;2023-02-01T12:34:13;10.70;99.90
19829;DHT22;10075;50.924;4.396;2023-02-01T12:36:50;10.80;99.90
19829;DHT22;10075;50.924;4.396;2023-02-01T12:39:23;10.80;99.90
19829;DHT22;10075;50.924;4.396;2023-02-01T12:41:56;11.00;99.90
19829;DHT22;10075;50.924;4.396;2023-02-01T12:44:37;11.30;99.90
19829;DHT22;10075;50.924;4.396;2023-02-01T12:47:12;11.30;99.90
19829;DHT22;10075;50.924;4.396;2023-02-01T12:49:46;11.40;99.90
19829;DHT22;10075;50.924;4.396;2023-02-01T12:52:19;11.50;99.90
19829;DHT22;10075;50.924;4.396;2023-02-01T12:54:50;11.60;99.90
19829;DHT22;10075;50.924;4.396;2023-02-01T12:57:24;11.30;99.90
19829;DHT22;10075;50.924;4.396;2023-02-01T12:59:56;11.20;99.90
19829;DHT22;10075;50.924;4.396;2023-02-01T13:02:29;11.30;99.90
19829;DHT22;10075;50.924;4.396;2023-02-01T13:05:03;11.40;99.90
19829;DHT22;10075;50.924;4.396;2023-02-01T13:07:36;11.50;99.90
19829;DHT22;10075;50.924;4.396;2023-02-01T13:10:14;11.50;99.90
19829;DHT22;10075;50.924;4.396;2023-02-01T13:12:47;11.40;99.90
19829;DHT22;10075;50.924;4.396;2023-02-01T13:15:19;11.60;99.90
19829;DHT22;10075;50.924;4.396;2023-02-01T13:17:49;11.60;99.90
19829;DHT22;10075;50.924;4.396;2023-02-01T13:20:29;11.40;99.90
19829;DHT22;10075;50.924;4.396;2023-02-01T13:23:02;11.50;99.90
19829;DHT22;10075;50.924;4.396;2023-02-01T13:25:35;11.40;99.90
19829;DHT22;10075;50.924;4.396;2023-02-01T13:28:07;11.40;99.90
19829;DHT22;10075;50.924;4.396;2023-02-01T13:30:53;11.40;99.90
19829;DHT22;10075;50.924;4.396;2023-02-01T13:36:41;11.20;99.90
19829;DHT22;10075;50.924;4.396;2023-02-01T13:39:48;11.00;99.90
19829;DHT22;10075;50.924;4.396;2023-02-01T13:42:20;11.10;99.90
19829;DHT22;10075;50.924;4.396;2023-02-01T13:44:50;11.30;99.90
19829;DHT22;10075;50.924;4.396;2023-02-01T13:47:25;11.40;99.90
19829;DHT22;10075;50.924;4.396;2023-02-01T13:49:55;11.60;99.90
19829;DHT22;10075;50.924;4.396;2023-02-01T13:52:32;11.60;99.90
19829;DHT22;10075;50.924;4.396;2023-02-01T13:58:30;10.90;99.90
19829;DHT22;10075;50.924;4.396;2023-02-01T14:04:46;10.80;99.90
19829;DHT22;10075;50.924;4.396;2023-02-01T14:07:19;10.70;99.90
19829;DHT22;10075;50.924;4.396;2023-02-01T14:09:46;10.60;99.90
19829;DHT22;10075;50.924;4.396;2023-02-01T14:12:43;10.70;99.90
19829;DHT22;10075;50.924;4.396;2023-02-01T14:15:23;10.80;99.90
19829;DHT22;10075;50.924;4.396;2023-02-01T14:17:51;10.60;99.90
19829;DHT22;10075;50.924;4.396;2023-02-01T14:20:46;10.70;99.90
19829;DHT22;10075;50.924;4.396;2023-02-01T14:23:22;10.80;99.90
19829;DHT22;10075;50.924;4.396;2023-02-01T14:28:49;10.80;99.90
19829;DHT22;10075;50.924;4.396;2023-02-01T14:31:38;10.80;99.90
19829;DHT22;10075;50.924;4.396;2023-02-01T14:34:13;10.90;99.90
19829;DHT22;10075;50.924;4.396;2023-02-01T14:36:47;11.00;99.90
19829;DHT22;10075;50.924;4.396;2023-02-01T14:39:49;10.90;99.90
19829;DHT22;10075;50.924;4.396;2023-02-01T14:42:21;10.90;99.90
19829;DHT22;10075;50.924;4.396;2023-02-01T14:44:49;10.80;99.90
19829;DHT22;10075;50.924;4.396;2023-02-01T14:47:35;10.70;99.90
19829;DHT22;10075;50.924;4.396;2023-02-01T14:50:31;10.70;99.90
19829;DHT22;10075;50.924;4.396;2023-02-01T14:53:17;10.50;99.90
19829;DHT22;10075;50.924;4.396;2023-02-01T14:55:49;10.40;99.90
19829;DHT22;10075;50.924;4.396;2023-02-01T14:58:25;10.60;99.90
19829;DHT22;10075;50.924;4.396;2023-02-01T15:00:56;10.30;99.90
19829;DHT22;10075;50.924;4.396;2023-02-01T15:03:45;10.10;99.90
19829;DHT22;10075;50.924;4.396;2023-02-01T15:06:22;10.20;99.90
19829;DHT22;10075;50.924;4.396;2023-02-01T15:08:53;9.90;99.90
19829;DHT22;10075;50.924;4.396;2023-02-01T15:11:21;9.90;99.90
19829;DHT22;10075;50.924;4.396;2023-02-01T15:13:49;9.90;99.90
19829;DHT22;10075;50.924;4.396;2023-02-01T15:16:20;10.00;99.90
19829;DHT22;10075;50.924;4.396;2023-02-01T15:18:49;10.00;99.90
19829;DHT22;10075;50.924;4.396;2023-02-01T15:21:18;9.90;99.90
19829;DHT22;10075;50.924;4.396;2023-02-01T15:23:45;9.90;99.90
19829;DHT22;10075;50.924;4.396;2023-02-01T15:26:30;9.90;99.90
19829;DHT22;10075;50.924;4.396;2023-02-01T15:28:58;10.30;99.90
19829;DHT22;10075;50.924;4.396;2023-02-01T15:31:33;10.10;99.90
19829;DHT22;10075;50.924;4.396;2023-02-01T15:34:02;10.40;99.90
19829;DHT22;10075;50.924;4.396;2023-02-01T15:36:30;10.30;99.90
19829;DHT22;10075;50.924;4.396;2023-02-01T15:39:20;10.20;99.90
19829;DHT22;10075;50.924;4.396;2023-02-01T15:41:53;9.70;99.90
19829;DHT22;10075;50.924;4.396;2023-02-01T15:44:33;9.70;99.90
19829;DHT22;10075;50.924;4.396;2023-02-01T15:47:07;9.90;99.90
19829;DHT22;10075;50.924;4.396;2023-02-01T15:49:39;9.80;99.90
19829;DHT22;10075;50.924;4.396;2023-02-01T15:52:20;9.80;99.90
19829;DHT22;10075;50.924;4.396;2023-02-01T15:54:50;10.10;99.90
19829;DHT22;10075;50.924;4.396;2023-02-01T15:57:21;10.30;99.90
19829;DHT22;10075;50.924;4.396;2023-02-01T15:59:49;10.50;99.90
19829;DHT22;10075;50.924;4.396;2023-02-01T16:02:29;10.40;99.90
19829;DHT22;10075;50.924;4.396;2023-02-01T16:05:01;10.30;99.90
19829;DHT22;10075;50.924;4.396;2023-02-01T16:07:30;10.20;99.90
19829;DHT22;10075;50.924;4.396;2023-02-01T16:09:58;9.90;99.90
19829;DHT22;10075;50.924;4.396;2023-02-01T16:12:33;10.00;99.90
19829;DHT22;10075;50.924;4.396;2023-02-01T16:15:01;10.20;99.90
19829;DHT22;10075;50.924;4.396;2023-02-01T16:17:28;10.00;99.90
19829;DHT22;10075;50.924;4.396;2023-02-01T16:19:55;10.00;99.90
19829;DHT22;10075;50.924;4.396;2023-02-01T16:22:24;10.10;99.90
19829;DHT22;10075;50.924;4.396;2023-02-01T16:24:51;10.30;99.90
19829;DHT22;10075;50.924;4.396;2023-02-01T16:27:18;10.30;99.90
19829;DHT22;10075;50.924;4.396;2023-02-01T16:29:46;10.20;99.90
19829;DHT22;10075;50.924;4.396;2023-02-01T16:32:17;10.10;99.90